createdAt,value
2022-08-07T00:02:39.774Z,101198.09
2022-08-07T00:05:21.226Z,101208.16
2022-08-07T00:08:02.015Z,101208.16
2022-08-07T00:10:48.184Z,101196.97
2022-08-07T00:13:28.478Z,101192.34
2022-08-07T00:15:58.398Z,101184.97
2022-08-07T00:18:29.431Z,101194.78
2022-08-07T00:21:01.650Z,101186.84
2022-08-07T00:23:33.256Z,101188.22
2022-08-07T00:26:12.891Z,101186.59
2022-08-07T00:28:45.617Z,101192.59
2022-08-07T00:31:16.489Z,101188.78
2022-08-07T00:33:47.697Z,101185.53
2022-08-07T00:36:16.783Z,101184.19
2022-08-07T00:38:45.649Z,101181.72
2022-08-07T00:41:15.057Z,101177.91
2022-08-07T00:44:01.112Z,101169.97
2022-08-07T00:46:33.143Z,101165.34
2022-08-07T00:49:11.016Z,101156.88
2022-08-07T00:51:56.750Z,101147.00
2022-08-07T00:54:26.429Z,101139.34
2022-08-07T00:56:54.522Z,101135.53
2022-08-07T00:59:35.175Z,101139.59
2022-08-07T01:02:14.107Z,101140.13
2022-08-07T01:04:56.864Z,101143.13
2022-08-07T01:07:30.983Z,101136.88
2022-08-07T01:10:06.851Z,101133.38
2022-08-07T01:12:53.397Z,101127.63
2022-08-07T01:16:01.272Z,101132.28
2022-08-07T01:18:17.146Z,101128.19
2022-08-07T01:21:22.568Z,101135.25
2022-08-07T01:23:57.856Z,101137.72
2022-08-07T01:26:27.292Z,101138.56
2022-08-07T01:28:56.239Z,101137.19
2022-08-07T01:31:42.319Z,101141.31
2022-08-07T01:34:14.688Z,101148.16
2022-08-07T01:36:44.738Z,101145.16
2022-08-07T01:39:40.374Z,101145.72
2022-08-07T01:42:38.410Z,101138.34
2022-08-07T01:45:18.195Z,101132.06
2022-08-07T01:48:29.379Z,101116.84
2022-08-07T01:50:50.364Z,101129.06
2022-08-07T01:54:09.554Z,101126.13
2022-08-07T01:56:13.312Z,101131.59
2022-08-07T01:59:22.238Z,101133.25
2022-08-07T02:02:00.099Z,101133.00
2022-08-07T02:04:52.650Z,101132.44
2022-08-07T02:07:54.387Z,101137.09
2022-08-07T02:10:36.900Z,101130.81
2022-08-07T02:13:14.469Z,101134.16
2022-08-07T02:15:53.180Z,101132.78
2022-08-07T02:18:25.931Z,101138.50
2022-08-07T02:20:59.794Z,101136.34
2022-08-07T02:23:45.889Z,101134.72
2022-08-07T02:26:32.854Z,101135.25
2022-08-07T02:29:14.310Z,101133.09
2022-08-07T02:31:48.488Z,101136.06
2022-08-07T02:34:21.204Z,101130.31
2022-08-07T02:36:57.104Z,101129.25
2022-08-07T02:39:43.610Z,101126.81
2022-08-07T02:42:27.153Z,101131.44
2022-08-07T02:44:58.940Z,101126.78
2022-08-07T02:47:35.039Z,101136.06
2022-08-07T02:50:18.453Z,101133.34
2022-08-07T02:53:03.279Z,101135.81
2022-08-07T02:56:03.662Z,101134.69
2022-08-07T02:58:28.006Z,101130.31
2022-08-07T03:01:05.240Z,101130.31
2022-08-07T03:03:49.723Z,101119.16
2022-08-07T03:06:34.906Z,101126.50
2022-08-07T03:09:11.251Z,101124.63
2022-08-07T03:11:51.889Z,101124.06
2022-08-07T03:14:28.849Z,101123.25
2022-08-07T03:16:58.575Z,101125.50
2022-08-07T03:19:29.061Z,101121.94
2022-08-07T03:22:18.531Z,101121.09
2022-08-07T03:24:50.102Z,101126.81
2022-08-07T03:27:30.338Z,101124.63
2022-08-07T03:30:08.060Z,101124.38
2022-08-07T03:32:48.994Z,101132.56
2022-08-07T03:35:28.041Z,101132.03
2022-08-07T03:38:14.166Z,101134.72
2022-08-07T03:40:44.652Z,101125.44
2022-08-07T03:43:15.950Z,101124.88
2022-08-07T03:45:49.380Z,101130.59
2022-08-07T03:48:22.974Z,101134.97
2022-08-07T03:50:55.809Z,101133.31
2022-08-07T03:54:05.915Z,101147.25
2022-08-07T03:56:33.175Z,101151.34
2022-08-07T03:59:10.075Z,101152.69
2022-08-07T04:01:45.766Z,101147.25
2022-08-07T04:04:18.208Z,101154.91
2022-08-07T04:06:53.084Z,101162.56
2022-08-07T04:09:25.496Z,101170.16
2022-08-07T04:12:24.441Z,101168.00
2022-08-07T04:14:56.343Z,101174.28
2022-08-07T04:17:24.838Z,101172.13
2022-08-07T04:20:14.147Z,101168.28
2022-08-07T04:22:53.219Z,101169.09
2022-08-07T04:25:24.541Z,101172.91
2022-08-07T04:28:00.340Z,101166.38
2022-08-07T04:30:39.441Z,101173.47
2022-08-07T04:33:20.839Z,101181.34
2022-08-07T04:35:53.844Z,101185.44
2022-08-07T04:38:27.949Z,101189.00
2022-08-07T04:40:58.718Z,101196.34
2022-08-07T04:44:12.819Z,101196.09
2022-08-07T04:46:59.488Z,101201.78
2022-08-07T04:49:57.801Z,101210.81
2022-08-07T04:53:09.249Z,101203.44
2022-08-07T04:58:13.692Z,101205.63
2022-08-07T04:59:17.190Z,101209.44
2022-08-07T05:02:21.364Z,101205.63
2022-08-07T05:05:11.879Z,101201.53
2022-08-07T05:08:05.263Z,101204.53
2022-08-07T05:10:45.932Z,101209.97
2022-08-07T05:14:53.040Z,101209.97
2022-08-07T05:16:19.120Z,101212.69
2022-08-07T05:18:56.667Z,101212.69
2022-08-07T05:22:00.835Z,101211.88
2022-08-07T05:24:18.158Z,101218.16
2022-08-07T05:26:49.968Z,101228.78
2022-08-07T05:29:20.319Z,101232.09
2022-08-07T05:31:52.796Z,101232.34
2022-08-07T05:34:28.055Z,101229.63
2022-08-07T05:36:57.485Z,101228.78
2022-08-07T05:40:13.864Z,101223.63
2022-08-07T05:42:34.404Z,101224.44
2022-08-07T05:45:14.261Z,101235.09
2022-08-07T05:48:01.711Z,101234.00
2022-08-07T05:50:42.893Z,101235.63
2022-08-07T05:54:12.182Z,101238.06
2022-08-07T05:56:06.164Z,101237.81
2022-08-07T05:58:52.594Z,101243.78
2022-08-07T06:01:34.908Z,101245.16
2022-08-07T06:04:06.799Z,101245.44
2022-08-07T06:06:46.035Z,101250.59
2022-08-07T06:09:17.425Z,101252.00
2022-08-07T06:11:48.860Z,101260.16
2022-08-07T06:14:28.798Z,101252.25
2022-08-07T06:17:10.659Z,101259.91
2022-08-07T06:19:47.886Z,101264.81
2022-08-07T06:22:38.463Z,101260.97
2022-08-07T06:25:34.727Z,101258.53
2022-08-07T06:28:14.933Z,101250.31
2022-08-07T06:30:46.000Z,101256.84
2022-08-07T06:33:22.664Z,101258.72
2022-08-07T06:36:06.576Z,101263.09
2022-08-07T06:38:58.556Z,101264.72
2022-08-07T06:42:02.477Z,101265.81
2022-08-07T06:44:51.140Z,101270.94
2022-08-07T06:47:20.967Z,101271.72
2022-08-07T06:49:59.078Z,101276.03
2022-08-07T06:52:41.296Z,101272.69
2022-08-07T06:55:33.879Z,101273.78
2022-08-07T06:58:40.540Z,101280.53
2022-08-07T07:01:33.166Z,101284.88
2022-08-07T07:04:32.090Z,101283.22
2022-08-07T07:07:10.703Z,101289.75
2022-08-07T07:09:49.627Z,101289.16
2022-08-07T07:12:33.899Z,101292.66
2022-08-07T07:15:24.153Z,101297.28
2022-08-07T07:18:10.925Z,101294.25
2022-08-07T07:20:44.968Z,101288.97
2022-08-07T07:24:09.556Z,101297.09
2022-08-07T07:26:34.088Z,101298.38
2022-08-07T07:29:56.456Z,101293.31
2022-08-07T07:32:14.590Z,101288.59
2022-08-07T07:34:50.201Z,101295.00
2022-08-07T07:37:44.361Z,101303.75
2022-08-07T07:40:15.186Z,101303.16
2022-08-07T07:42:51.209Z,101306.88
2022-08-07T07:46:35.507Z,101306.03
2022-08-07T07:48:34.878Z,101312.75
2022-08-07T07:51:08.071Z,101305.78
2022-08-07T07:53:52.578Z,101304.53
2022-08-07T07:56:30.183Z,101307.16
2022-08-07T07:59:06.029Z,101307.78
2022-08-07T08:02:02.944Z,101315.13
2022-08-07T08:04:27.678Z,101309.88
2022-08-07T08:07:07.561Z,101315.66
2022-08-07T08:09:52.158Z,101318.41
2022-08-07T08:12:52.675Z,101315.34
2022-08-07T08:15:23.223Z,101317.56
2022-08-07T08:17:57.588Z,101320.91
2022-08-07T08:20:31.760Z,101325.00
2022-08-07T08:23:20.642Z,101313.09
2022-08-07T08:26:10.889Z,101308.63
2022-08-07T08:28:45.105Z,101310.97
2022-08-07T08:31:29.948Z,101321.13
2022-08-07T08:34:12.439Z,101313.88
2022-08-07T08:36:57.782Z,101320.94
2022-08-07T08:39:38.991Z,101316.03
2022-08-07T08:42:19.011Z,101310.41
2022-08-07T08:45:26.658Z,101312.25
2022-08-07T08:48:18.631Z,101314.13
2022-08-07T08:50:55.847Z,101308.75
2022-08-07T08:53:40.481Z,101305.66
2022-08-07T08:56:17.392Z,101310.31
2022-08-07T08:59:06.514Z,101311.25
2022-08-07T09:01:49.554Z,101318.81
2022-08-07T09:04:37.855Z,101308.84
2022-08-07T09:07:23.198Z,101318.19
2022-08-07T09:10:12.576Z,101317.78
2022-08-07T09:13:14.707Z,101319.84
2022-08-07T09:16:23.617Z,101315.25
2022-08-07T09:19:53.744Z,101323.25
2022-08-07T09:24:28.561Z,101320.31
2022-08-07T09:25:17.382Z,101319.41
2022-08-07T09:30:03.471Z,101318.31
2022-08-07T09:31:38.456Z,101316.53
2022-08-07T09:34:23.127Z,101317.78
2022-08-07T09:36:54.640Z,101315.06
2022-08-07T09:39:54.664Z,101315.81
2022-08-07T09:42:45.411Z,101324.03
2022-08-07T09:47:52.063Z,101319.50
2022-08-07T09:48:56.211Z,101328.41
2022-08-07T09:52:10.570Z,101319.50
2022-08-07T09:54:54.989Z,101320.94
2022-08-07T09:57:55.413Z,101319.63
2022-08-07T10:00:31.837Z,101319.53
2022-08-07T10:04:05.778Z,101320.06
2022-08-07T10:06:54.079Z,101316.84
2022-08-07T10:09:42.540Z,101325.09
2022-08-07T10:12:53.073Z,101328.41
2022-08-07T10:16:00.881Z,101320.31
2022-08-07T10:18:46.326Z,101319.22
2022-08-07T10:22:14.586Z,101319.66
2022-08-07T10:24:50.372Z,101319.94
2022-08-07T10:27:51.417Z,101318.75
2022-08-07T10:30:31.999Z,101327.50
2022-08-07T10:34:06.503Z,101314.06
2022-08-07T10:36:41.871Z,101312.88
2022-08-07T10:39:57.659Z,101307.78
2022-08-07T10:42:39.279Z,101320.59
2022-08-07T10:45:44.672Z,101308.09
2022-08-07T10:48:34.602Z,101309.84
2022-08-07T10:51:16.663Z,101308.25
2022-08-07T10:54:13.070Z,101311.56
2022-08-07T10:56:44.346Z,101309.13
2022-08-07T10:59:53.491Z,101305.75
2022-08-07T11:02:53.670Z,101310.63
2022-08-07T11:05:50.689Z,101301.19
2022-08-07T11:08:40.112Z,101290.25
2022-08-07T11:11:22.088Z,101284.25
2022-08-07T11:14:45.488Z,101287.94
2022-08-07T11:17:47.213Z,101289.34
2022-08-07T11:20:36.777Z,101295.53
2022-08-07T11:23:30.764Z,101289.16
2022-08-07T11:26:26.071Z,101291.72
2022-08-07T11:29:13.268Z,101287.00
2022-08-07T11:32:25.923Z,101281.13
2022-08-07T11:35:09.623Z,101287.72
2022-08-07T11:38:12.464Z,101276.44
2022-08-07T11:40:50.008Z,101283.03
2022-08-07T11:43:54.648Z,101276.16
2022-08-07T11:47:00.067Z,101281.66
2022-08-07T11:50:31.201Z,101279.91
2022-08-07T11:53:27.954Z,101280.00
2022-08-07T11:56:09.273Z,101280.19
2022-08-07T12:00:11.796Z,101271.97
2022-08-07T12:02:55.775Z,101269.41
2022-08-07T12:06:01.742Z,101264.75
2022-08-07T12:09:05.374Z,101264.94
2022-08-07T12:12:10.281Z,101265.63
2022-08-07T12:14:42.295Z,101257.78
2022-08-07T12:17:19.810Z,101251.50
2022-08-07T12:20:13.960Z,101247.22
2022-08-07T12:23:14.459Z,101243.25
2022-08-07T12:26:23.318Z,101239.09
2022-08-07T12:29:14.135Z,101237.25
2022-08-07T12:32:02.266Z,101234.72
2022-08-07T12:38:11.701Z,101235.31
2022-08-07T12:40:46.796Z,101223.19
2022-08-07T12:44:04.932Z,101224.66
2022-08-07T12:46:34.692Z,101219.94
2022-08-07T12:49:39.823Z,101219.84
2022-08-07T12:52:18.032Z,101211.50
2022-08-07T12:55:05.464Z,101215.69
2022-08-07T12:58:00.180Z,101208.25
2022-08-07T13:00:56.756Z,101208.03
2022-08-07T13:04:05.728Z,101207.22
2022-08-07T13:08:11.462Z,101204.16
2022-08-07T13:10:42.475Z,101200.63
2022-08-07T13:13:57.780Z,101198.78
2022-08-07T13:16:46.765Z,101203.84
2022-08-07T13:19:34.958Z,101201.25
2022-08-07T13:22:37.354Z,101202.84
2022-08-07T13:25:30.099Z,101193.06
2022-08-07T13:28:24.010Z,101191.44
2022-08-07T13:31:06.654Z,101183.44
2022-08-07T13:34:31.060Z,101173.03
2022-08-07T13:37:19.575Z,101175.38
2022-08-07T13:40:35.177Z,101172.53
2022-08-07T13:43:12.827Z,101184.78
2022-08-07T13:46:11.576Z,101185.78
2022-08-07T13:48:39.606Z,101176.19
2022-08-07T13:51:26.916Z,101181.19
2022-08-07T13:54:10.035Z,101173.25
2022-08-07T13:56:56.112Z,101175.59
2022-08-07T13:59:33.547Z,101172.94
2022-08-07T14:02:15.684Z,101170.69
2022-08-07T14:04:47.506Z,101171.09
2022-08-07T14:07:23.074Z,101167.81
2022-08-07T14:10:01.933Z,101165.22
2022-08-07T14:13:03.906Z,101160.22
2022-08-07T14:15:39.435Z,101154.94
2022-08-07T14:18:28.394Z,101157.69
2022-08-07T14:21:20.902Z,101164.78
2022-08-07T14:24:09.850Z,101146.59
2022-08-07T14:26:50.207Z,101144.78
2022-08-07T14:30:04.985Z,101138.34
2022-08-07T14:32:19.184Z,101131.25
2022-08-07T14:34:52.535Z,101122.22
2022-08-07T14:37:23.761Z,101127.09
2022-08-07T14:40:16.511Z,101124.59
2022-08-07T14:43:58.119Z,101129.22
2022-08-07T14:45:50.839Z,101122.31
2022-08-07T14:48:27.762Z,101111.88
2022-08-07T14:51:16.138Z,101106.03
2022-08-07T14:54:03.714Z,101092.00
2022-08-07T14:56:42.266Z,101095.28
2022-08-07T14:59:14.060Z,101089.97
2022-08-07T15:02:31.689Z,101088.41
2022-08-07T15:05:04.841Z,101087.72
2022-08-07T15:07:52.251Z,101100.34
2022-08-07T15:10:26.024Z,101108.31
2022-08-07T15:16:20.160Z,101114.25
2022-08-07T15:19:07.186Z,101120.75
2022-08-07T15:21:44.368Z,101109.06
2022-08-07T15:27:29.069Z,101129.88
2022-08-07T15:30:16.222Z,101155.22
2022-08-07T15:32:51.086Z,101176.00
2022-08-07T15:36:02.207Z,101187.53
2022-08-07T15:42:44.165Z,101187.63
2022-08-07T15:44:21.202Z,101184.25
2022-08-07T15:47:09.053Z,101168.59
2022-08-07T15:50:05.039Z,101175.47
2022-08-07T15:52:37.430Z,101162.03
2022-08-07T15:55:11.433Z,101159.81
2022-08-07T15:57:48.414Z,101162.97
2022-08-07T16:00:31.564Z,101162.84
2022-08-07T16:03:20.537Z,101171.25
2022-08-07T16:05:52.780Z,101187.75
2022-08-07T16:08:38.868Z,101195.72
2022-08-07T16:11:33.929Z,101211.13
2022-08-07T16:14:19.179Z,101218.75
2022-08-07T16:16:57.534Z,101224.38
2022-08-07T16:19:59.704Z,101230.47
2022-08-07T16:22:55.566Z,101248.94
2022-08-07T16:26:05.456Z,101246.56
2022-08-07T16:29:18.719Z,101240.34
2022-08-07T16:31:57.218Z,101232.94
2022-08-07T16:34:48.362Z,101219.69
2022-08-07T16:38:05.786Z,101222.13
2022-08-07T16:41:02.377Z,101211.16
2022-08-07T16:44:04.231Z,101205.38
2022-08-07T16:47:21.807Z,101207.88
2022-08-07T16:50:39.039Z,101217.69
2022-08-07T16:54:02.872Z,101219.69
2022-08-07T16:56:33.065Z,101209.59
2022-08-07T16:59:17.659Z,101205.13
2022-08-07T17:02:51.288Z,101183.94
2022-08-07T17:06:22.450Z,101183.13
2022-08-07T17:08:09.238Z,101184.16
2022-08-07T17:10:54.727Z,101183.06
2022-08-07T17:14:17.964Z,101185.78
2022-08-07T17:17:00.722Z,101198.25
2022-08-07T17:20:01.571Z,101195.81
2022-08-07T17:22:37.992Z,101194.78
2022-08-07T17:25:47.855Z,101188.25
2022-08-07T17:28:19.732Z,101183.88
2022-08-07T17:30:58.346Z,101173.09
2022-08-07T17:34:09.336Z,101170.78
2022-08-07T17:36:27.966Z,101172.41
2022-08-07T17:39:18.861Z,101184.50
2022-08-07T17:42:01.788Z,101182.84
2022-08-07T17:44:54.602Z,101180.22
2022-08-07T17:47:38.434Z,101173.69
2022-08-07T17:50:30.539Z,101164.75
2022-08-07T17:53:59.647Z,101158.34
2022-08-07T17:56:25.979Z,101169.38
2022-08-07T17:58:57.461Z,101155.19
2022-08-07T18:01:36.734Z,101156.22
2022-08-07T18:04:16.421Z,101157.63
2022-08-07T18:07:19.394Z,101169.38
2022-08-07T18:10:06.349Z,101167.38
2022-08-07T18:13:10.145Z,101171.16
2022-08-07T18:15:56.572Z,101152.41
2022-08-07T18:21:00.825Z,101137.81
2022-08-07T18:21:53.576Z,101121.16
2022-08-07T18:24:33.601Z,101097.59
2022-08-07T18:27:47.249Z,101067.09
2022-08-07T18:30:32.529Z,101040.81
2022-08-07T18:33:55.260Z,101022.94
2022-08-07T18:36:54.903Z,101025.41
2022-08-07T18:40:18.591Z,101025.41
2022-08-07T18:43:12.142Z,101049.31
2022-08-07T18:46:24.541Z,101068.81
2022-08-07T18:50:32.731Z,101091.09
2022-08-07T18:52:54.485Z,101074.59
2022-08-07T18:55:42.363Z,101050.75
2022-08-07T18:58:40.924Z,101048.00
2022-08-07T19:02:19.091Z,101037.28
2022-08-07T19:05:15.138Z,101033.50
2022-08-07T19:08:05.291Z,101033.50
2022-08-07T19:10:51.672Z,101032.97
2022-08-07T19:13:39.885Z,101033.22
2022-08-07T19:17:06.089Z,101033.59
2022-08-07T19:19:51.612Z,101046.47
2022-08-07T19:22:30.293Z,101035.53
2022-08-07T19:25:05.698Z,101041.38
2022-08-07T19:28:58.697Z,101042.16
2022-08-07T19:30:55.313Z,101049.25
2022-08-07T19:33:34.745Z,101037.41
2022-08-07T19:36:04.646Z,101049.41
2022-08-07T19:38:35.918Z,101040.66
2022-08-07T19:41:39.134Z,101051.03
2022-08-07T19:44:22.137Z,101052.25
2022-08-07T19:47:04.256Z,101069.41
2022-08-07T19:49:57.845Z,101076.63
2022-08-07T19:52:30.819Z,101080.75
2022-08-07T19:55:02.849Z,101080.75
2022-08-07T19:58:12.898Z,101066.81
2022-08-07T20:00:55.575Z,101067.25
2022-08-07T20:03:34.751Z,101080.00
2022-08-07T20:06:28.375Z,101087.72
2022-08-07T20:09:04.687Z,101092.19
2022-08-07T20:12:22.131Z,101082.63
2022-08-07T20:14:53.658Z,101082.63
2022-08-07T20:17:24.615Z,101093.22
2022-08-07T20:19:58.612Z,101093.84
2022-08-07T20:22:34.065Z,101102.16
2022-08-07T20:25:19.981Z,101097.22
2022-08-07T20:28:03.356Z,101085.19
2022-08-07T20:30:37.085Z,101090.03
2022-08-07T20:33:36.163Z,101091.97
2022-08-07T20:36:03.451Z,101089.78
2022-08-07T20:38:33.538Z,101086.41
2022-08-07T20:41:05.616Z,101101.25
2022-08-07T20:43:35.676Z,101115.78
2022-08-07T20:46:26.189Z,101121.13
2022-08-07T20:49:58.479Z,101115.78
2022-08-07T20:51:51.102Z,101112.25
2022-08-07T20:54:29.846Z,101114.03
2022-08-07T20:57:10.328Z,101129.28
2022-08-07T21:00:07.835Z,101127.03
2022-08-07T21:02:54.137Z,101130.81
2022-08-07T21:05:42.951Z,101127.63
2022-08-07T21:08:38.292Z,101132.22
2022-08-07T21:11:17.476Z,101134.38
2022-08-07T21:14:20.122Z,101140.47
2022-08-07T21:18:00.460Z,101150.88
2022-08-07T21:20:05.052Z,101144.34
2022-08-07T21:22:50.962Z,101147.59
2022-08-07T21:25:56.962Z,101150.59
2022-08-07T21:28:49.062Z,101135.84
2022-08-07T21:32:41.856Z,101146.50
2022-08-07T21:35:11.230Z,101155.53
2022-08-07T21:37:58.580Z,101158.28
2022-08-07T21:40:59.873Z,101166.19
2022-08-07T21:44:01.617Z,101153.06
2022-08-07T21:46:53.485Z,101141.06
2022-08-07T21:50:02.852Z,101145.94
2022-08-07T21:53:08.606Z,101154.69
2022-08-07T21:55:56.214Z,101165.34
2022-08-07T21:59:01.690Z,101166.66
2022-08-07T22:02:10.746Z,101163.69
2022-08-07T22:04:53.841Z,101171.09
2022-08-07T22:07:31.754Z,101172.75
2022-08-07T22:10:24.534Z,101173.31
2022-08-07T22:13:15.384Z,101176.84
2022-08-07T22:16:45.744Z,101179.84
2022-08-07T22:19:20.115Z,101182.84
2022-08-07T22:22:27.419Z,101190.53
2022-08-07T22:25:08.530Z,101196.22
2022-08-07T22:28:07.548Z,101188.59
2022-08-07T22:30:58.167Z,101196.78
2022-08-07T22:33:52.541Z,101196.25
2022-08-07T22:36:39.185Z,101200.66
2022-08-07T22:39:23.450Z,101208.81
2022-08-07T22:42:19.809Z,101203.34
2022-08-07T22:44:59.074Z,101211.53
2022-08-07T22:47:58.892Z,101203.34
2022-08-07T22:50:36.381Z,101208.78
2022-08-07T22:54:05.352Z,101206.09
2022-08-07T22:56:16.776Z,101199.03
2022-08-07T22:59:05.095Z,101207.22
2022-08-07T23:02:17.952Z,101207.22
2022-08-07T23:06:07.267Z,101206.69
2022-08-07T23:08:04.853Z,101197.94
2022-08-07T23:11:06.269Z,101195.47
2022-08-07T23:14:14.622Z,101197.94
2022-08-07T23:17:15.697Z,101190.84
2022-08-07T23:20:51.025Z,101187.81
2022-08-07T23:24:05.318Z,101186.47
2022-08-07T23:27:33.652Z,101193.03
2022-08-07T23:30:37.671Z,101195.22
2022-08-07T23:34:23.883Z,101191.97
2022-08-07T23:36:37.692Z,101193.66
2022-08-07T23:39:27.545Z,101190.88
2022-08-07T23:42:24.690Z,101190.91
2022-08-07T23:46:02.623Z,101198.50
2022-08-07T23:48:58.798Z,101199.88
2022-08-07T23:53:17.042Z,101200.72
2022-08-07T23:54:52.822Z,101210.00
2022-08-07T23:57:56.165Z,101204.25
